CYWJ

Déline Airport

Déline, Northwest Territories, Canada
METAR CYWJ 152000Z 11009KT 40SM BKN034 BKN090 15/08 A2978 RMK SC6AC1 OCNL SHWRS SLP094 DENSITY ALT 1000FT
Observed Flight Rules
Jul-15 @ 20:00 UTC (50 minutes ago) Visual Flight Rules
Wind Visibility Clouds
110° at 9 knots 40 miles
  • Broken at 3,400' AGL
  • Broken at 9,000' AGL
Temperatures Readings
Current 15°C / 59°F
Dewpoint 8°C / 46°F
Humidity 63%
Altimeter 29.78" Hg
Pressure 1009.4 hPa
Elevation 176
METAR CYWJ 152000Z 11009KT 40SM BKN034 BKN090 15/08 A2978 RMK SC6AC1 OCNL SHWRS SLP094 DENSITY ALT 1000FT
Observed Flight Rules
Jul-15 @ 20:00 UTC
(50 minutes ago)
VFR
Wind Visibility
110° at 9 knots 40 miles
Clouds
  • Broken at 3,400' AGL
  • Broken at 9,000' AGL
Temperature Dewpoint
15°C / 59°F 8°C / 46°F
Humidity Altimeter Pressure
63% 29.78" Hg 1009.4 hPa